1874 NOT_NAMED (1874080S13073)


IBTrACS version v04r00. Visit IBTrACS website for data access.
Please direct all questions to the IBTrACS Q and A forum

Storm track - Intensity - Wind Radii - Intensity Data - Source Data - All data

Summary Information

Storm ID 1874080S13073
Start Mar 21 06Z
End Apr 1 06Z
ATCF IDs
Track status Best track data.

Storm track plot

Map of storm track

Intensity plots

No Intensity information for this storm


Radial wind information

No radial wind information for this storm


Position and Intensity Table

BASIN ISO_TIME_________ NATURE LAT LON
degrees north degrees east
SI 1874-03-21 06:00:00 NR -13.40 72.90
SI 09:00:00 NR -13.37 72.94
SI 12:00:00 NR -13.35 72.97
SI 15:00:00 NR -13.33 72.97
SI 18:00:00 NR -13.32 72.93
SI 21:00:00 NR -13.32 72.84
SI 1874-03-22 00:00:00 NR -13.33 72.68
SI 03:00:00 NR -13.36 72.43
SI 06:00:00 NR -13.40 72.10
SI 09:00:00 NR -13.46 71.66
SI 12:00:00 NR -13.54 71.14
SI 15:00:00 NR -13.63 70.54
SI 18:00:00 NR -13.73 69.88
SI 21:00:00 NR -13.84 69.20
SI 1874-03-23 00:00:00 NR -13.96 68.49
SI 03:00:00 NR -14.08 67.79
SI 06:00:00 NR -14.20 67.10
SI 09:00:00 NR -14.31 66.49
SI 12:00:00 NR -14.43 65.88
SI 15:00:00 NR -14.55 65.28
SI 18:00:00 NR -14.67 64.69
SI 21:00:00 NR -14.80 64.11
SI 1874-03-24 00:00:00 NR -14.93 63.55
SI 03:00:00 NR -15.06 63.02
SI 06:00:00 NR -15.20 62.50
SI 09:00:00 NR -15.35 61.96
SI 12:00:00 NR -15.50 61.45
SI 15:00:00 NR -15.66 60.95
SI 18:00:00 NR -15.81 60.48
SI 21:00:00 NR -15.97 60.05
SI 1874-03-25 00:00:00 NR -16.12 59.65
SI 03:00:00 NR -16.26 59.30
SI 06:00:00 NR -16.40 59.00
SI 09:00:00 NR -16.50 58.76
SI 12:00:00 NR -16.59 58.57
SI 15:00:00 NR -16.68 58.42
SI 18:00:00 NR -16.77 58.31
SI 21:00:00 NR -16.86 58.22
SI 1874-03-26 00:00:00 NR -16.96 58.15
SI 03:00:00 NR -17.07 58.08
SI 06:00:00 NR -17.20 58.00
SI 09:00:00 NR -17.36 57.86
SI 12:00:00 NR -17.55 57.72
SI 15:00:00 NR -17.74 57.58
SI 18:00:00 NR -17.95 57.44
SI 21:00:00 NR -18.16 57.31
SI 1874-03-27 00:00:00 NR -18.37 57.19
SI 03:00:00 NR -18.59 57.09
SI 06:00:00 NR -18.80 57.00
SI 09:00:00 NR -18.99 56.93
SI 12:00:00 NR -19.17 56.87
SI 15:00:00 NR -19.35 56.83
SI 18:00:00 NR -19.53 56.80
SI 21:00:00 NR -19.72 56.79
SI 1874-03-28 00:00:00 NR -19.91 56.78
SI 03:00:00 NR -20.10 56.79
SI 06:00:00 NR -20.30 56.80
SI 09:00:00 NR -20.50 56.79
SI 12:00:00 NR -20.70 56.79
SI 15:00:00 NR -20.91 56.80
SI 18:00:00 NR -21.12 56.82
SI 21:00:00 NR -21.35 56.86
SI 1874-03-29 00:00:00 NR -21.59 56.91
SI 03:00:00 NR -21.84 56.99
SI 06:00:00 NR -22.10 57.10
SI 09:00:00 NR -22.37 57.22
SI 12:00:00 NR -22.65 57.37
SI 15:00:00 NR -22.94 57.54
SI 18:00:00 NR -23.24 57.74
SI 21:00:00 NR -23.56 57.95
SI 1874-03-30 00:00:00 NR -23.90 58.18
SI 03:00:00 NR -24.24 58.43
SI 06:00:00 NR -24.60 58.70
SI 09:00:00 NR -25.01 59.00
SI 12:00:00 NR -25.44 59.32
SI 15:00:00 NR -25.88 59.65
SI 18:00:00 NR -26.32 59.99
SI 21:00:00 NR -26.74 60.33
SI 1874-03-31 00:00:00 NR -27.13 60.65
SI 03:00:00 NR -27.49 60.94
SI 06:00:00 NR -27.80 61.20
SI 09:00:00 NR -28.05 61.42
SI 12:00:00 NR -28.26 61.59
SI 15:00:00 NR -28.41 61.73
SI 18:00:00 NR -28.54 61.84
SI 21:00:00 NR -28.63 61.93
SI 1874-04-01 00:00:00 NR -28.70 61.99
SI 03:00:00 NR -28.75 62.05
SI 06:00:00 NR -28.80 62.10

Source Information

Agency Information
USA
TOKYO
CMA
HKO
NEWDELHI
REUNION WMO-Best-Tracks.txt:Line=1043:xxxx874152
BOM
NADI
WELLINGTON
DS824
TD9636
TD9635
NEUMANN
MLC

All available IBTrACS Data

SEASON BASIN SUBBASIN ISO_TIME_________ NATURE LAT LON WMO AGENCY DIST2LAND LANDFALL IFLAG USA SSHS REUNION LAT REUNION LON REUNION TYPE REUNION TNUM STORM SPEED STORM DIR
Year degrees north degrees east km km 1 degrees north degrees east 1 kts degrees
1874 SI MM 1874-03-21 06:00:00 NR -13.40 72.90 reunion 1781 1781 _____O________ -1 -13.40 72.90 99 9.90 1 49
1874 SI MM 09:00:00 NR -13.37 72.94 1781 1781 _____P________ -1 -13.37 72.94 99 1 56
1874 SI MM 12:00:00 NR -13.35 72.97 1791 1791 _____P________ -1 -13.35 72.97 99 1 0
1874 SI MM 15:00:00 NR -13.33 72.97 1796 1786 _____P________ -1 -13.33 72.97 99 0 302
1874 SI MM 18:00:00 NR -13.32 72.93 1786 1777 _____P________ -1 -13.32 72.93 99 1 275
1874 SI MM 21:00:00 NR -13.32 72.84 1777 1767 _____P________ -1 -13.32 72.84 99 2 268
1874 SI MM 1874-03-22 00:00:00 NR -13.33 72.68 1767 1743 _____P________ -1 -13.33 72.68 99 4 265
1874 SI MM 03:00:00 NR -13.36 72.43 1733 1705 _____P________ -1 -13.36 72.43 99 6 263
1874 SI MM 06:00:00 NR -13.40 72.10 reunion 1705 1662 _____O________ -1 -13.40 72.10 99 9.90 8 262
1874 SI MM 09:00:00 NR -13.46 71.66 1662 1614 _____P________ -1 -13.46 71.66 99 9 262
1874 SI MM 12:00:00 NR -13.54 71.14 1605 1552 _____P________ -1 -13.54 71.14 99 11 261
1874 SI MM 15:00:00 NR -13.63 70.54 1543 1481 _____P________ -1 -13.63 70.54 99 12 261
1874 SI MM 18:00:00 NR -13.73 69.88 1481 1411 _____P________ -1 -13.73 69.88 99 13 261
1874 SI MM 21:00:00 NR -13.84 69.20 1411 1341 _____P________ -1 -13.84 69.20 99 14 261
1874 SI MM 1874-03-23 00:00:00 NR -13.96 68.49 1335 1265 _____P________ -1 -13.96 68.49 99 14 260
1874 SI MM 03:00:00 NR -14.08 67.79 1265 1196 _____P________ -1 -14.08 67.79 99 14 260
1874 SI MM 06:00:00 NR -14.20 67.10 reunion 1196 1137 _____O________ -1 -14.20 67.10 99 9.90 13 259
1874 SI MM 09:00:00 NR -14.31 66.49 1137 1079 _____P________ -1 -14.31 66.49 99 12 259
1874 SI MM 12:00:00 NR -14.43 65.88 1079 1021 _____P________ -1 -14.43 65.88 99 12 259
1874 SI MM 15:00:00 NR -14.55 65.28 1021 957 _____P________ -1 -14.55 65.28 99 12 258
1874 SI MM 18:00:00 NR -14.67 64.69 957 901 _____P________ -1 -14.67 64.69 99 12 257
1874 SI MM 21:00:00 NR -14.80 64.11 901 854 _____P________ -1 -14.80 64.11 99 11 257
1874 SI MM 1874-03-24 00:00:00 NR -14.93 63.55 854 792 _____P________ -1 -14.93 63.55 99 11 256
1874 SI MM 03:00:00 NR -15.06 63.02 792 747 _____P________ -1 -15.06 63.02 99 11 255
1874 SI MM 06:00:00 NR -15.20 62.50 reunion 747 704 _____O________ -1 -15.20 62.50 99 9.90 11 254
1874 SI MM 09:00:00 NR -15.35 61.96 704 653 _____P________ -1 -15.35 61.96 99 11 254
1874 SI MM 12:00:00 NR -15.50 61.45 646 612 _____P________ -1 -15.50 61.45 99 10 252
1874 SI MM 15:00:00 NR -15.66 60.95 597 564 _____P________ -1 -15.66 60.95 99 10 251
1874 SI MM 18:00:00 NR -15.81 60.48 564 524 _____P________ -1 -15.81 60.48 99 9 250
1874 SI MM 21:00:00 NR -15.97 60.05 519 494 _____P________ -1 -15.97 60.05 99 9 249
1874 SI MM 1874-03-25 00:00:00 NR -16.12 59.65 494 457 _____P________ -1 -16.12 59.65 99 8 248
1874 SI MM 03:00:00 NR -16.26 59.30 457 436 _____P________ -1 -16.26 59.30 99 7 246
1874 SI MM 06:00:00 NR -16.40 59.00 reunion 436 419 _____O________ -1 -16.40 59.00 99 9.90 6 246
1874 SI MM 09:00:00 NR -16.50 58.76 419 402 _____P________ -1 -16.50 58.76 99 5 245
1874 SI MM 12:00:00 NR -16.59 58.57 402 387 _____P________ -1 -16.59 58.57 99 4 241
1874 SI MM 15:00:00 NR -16.68 58.42 387 374 _____P________ -1 -16.68 58.42 99 3 235
1874 SI MM 18:00:00 NR -16.77 58.31 374 361 _____P________ -1 -16.77 58.31 99 3 228
1874 SI MM 21:00:00 NR -16.86 58.22 361 350 _____P________ -1 -16.86 58.22 99 2 220
1874 SI MM 1874-03-26 00:00:00 NR -16.96 58.15 349 338 _____P________ -1 -16.96 58.15 99 3 213
1874 SI MM 03:00:00 NR -17.07 58.08 338 325 _____P________ -1 -17.07 58.08 99 3 211
1874 SI MM 06:00:00 NR -17.20 58.00 reunion 325 302 _____O________ -1 -17.20 58.00 99 9.90 4 215
1874 SI MM 09:00:00 NR -17.36 57.86 302 290 _____P________ -1 -17.36 57.86 99 4 218
1874 SI MM 12:00:00 NR -17.55 57.72 290 268 _____P________ -1 -17.55 57.72 99 5 215
1874 SI MM 15:00:00 NR -17.74 57.58 268 246 _____P________ -1 -17.74 57.58 99 5 214
1874 SI MM 18:00:00 NR -17.95 57.44 246 223 _____P________ -1 -17.95 57.44 99 5 211
1874 SI MM 21:00:00 NR -18.16 57.31 213 192 _____P________ -1 -18.16 57.31 99 5 209
1874 SI MM 1874-03-27 00:00:00 NR -18.37 57.19 192 172 _____P________ -1 -18.37 57.19 99 5 206
1874 SI MM 03:00:00 NR -18.59 57.09 172 154 _____P________ -1 -18.59 57.09 99 5 203
1874 SI MM 06:00:00 NR -18.80 57.00 reunion 154 138 _____O________ -1 -18.80 57.00 99 9.90 4 201
1874 SI MM 09:00:00 NR -18.99 56.93 138 118 _____P________ -1 -18.99 56.93 99 4 197
1874 SI MM 12:00:00 NR -19.17 56.87 118 109 _____P________ -1 -19.17 56.87 99 4 193
1874 SI MM 15:00:00 NR -19.35 56.83 107 99 _____P________ -1 -19.35 56.83 99 4 190
1874 SI MM 18:00:00 NR -19.53 56.80 99 85 _____P________ -1 -19.53 56.80 99 4 186
1874 SI MM 21:00:00 NR -19.72 56.79 85 76 _____P________ -1 -19.72 56.79 99 4 183
1874 SI MM 1874-03-28 00:00:00 NR -19.91 56.78 76 66 _____P________ -1 -19.91 56.78 99 4 177
1874 SI MM 03:00:00 NR -20.10 56.79 66 56 _____P________ -1 -20.10 56.79 99 4 0
1874 SI MM 06:00:00 NR -20.30 56.80 reunion 56 52 _____O________ -1 -20.30 56.80 99 9.90 4 177
1874 SI MM 09:00:00 NR -20.50 56.79 52 52 _____P________ -1 -20.50 56.79 99 4 0
1874 SI MM 12:00:00 NR -20.70 56.79 56 56 _____P________ -1 -20.70 56.79 99 4 177
1874 SI MM 15:00:00 NR -20.91 56.80 68 68 _____P________ -1 -20.91 56.80 99 4 0
1874 SI MM 18:00:00 NR -21.12 56.82 84 84 _____P________ -1 -21.12 56.82 99 4 172
1874 SI MM 21:00:00 NR -21.35 56.86 108 108 _____P________ -1 -21.35 56.86 99 5 169
1874 SI MM 1874-03-29 00:00:00 NR -21.59 56.91 118 118 _____P________ -1 -21.59 56.91 99 5 165
1874 SI MM 03:00:00 NR -21.84 56.99 136 136 _____P________ -1 -21.84 56.99 99 5 161
1874 SI MM 06:00:00 NR -22.10 57.10 reunion 161 161 _____O________ -1 -22.10 57.10 99 9.90 6 158
1874 SI MM 09:00:00 NR -22.37 57.22 189 189 _____P________ -1 -22.37 57.22 99 6 155
1874 SI MM 12:00:00 NR -22.65 57.37 219 219 _____P________ -1 -22.65 57.37 99 6 153
1874 SI MM 15:00:00 NR -22.94 57.54 250 250 _____P________ -1 -22.94 57.54 99 7 151
1874 SI MM 18:00:00 NR -23.24 57.74 288 288 _____P________ -1 -23.24 57.74 99 7 149
1874 SI MM 21:00:00 NR -23.56 57.95 342 342 _____P________ -1 -23.56 57.95 99 8 148
1874 SI MM 1874-03-30 00:00:00 NR -23.90 58.18 380 380 _____P________ -1 -23.90 58.18 99 8 147
1874 SI MM 03:00:00 NR -24.24 58.43 419 419 _____P________ -1 -24.24 58.43 99 8 146
1874 SI MM 06:00:00 NR -24.60 58.70 reunion 469 469 _____O________ -1 -24.60 58.70 99 9.90 9 146
1874 SI MM 09:00:00 NR -25.01 59.00 520 520 _____P________ -1 -25.01 59.00 99 10 146
1874 SI MM 12:00:00 NR -25.44 59.32 571 571 _____P________ -1 -25.44 59.32 99 11 146
1874 SI MM 15:00:00 NR -25.88 59.65 637 637 _____P________ -1 -25.88 59.65 99 11 145
1874 SI MM 18:00:00 NR -26.32 59.99 689 689 _____P________ -1 -26.32 59.99 99 11 145
1874 SI MM 21:00:00 NR -26.74 60.33 741 741 _____P________ -1 -26.74 60.33 99 10 144
1874 SI MM 1874-03-31 00:00:00 NR -27.13 60.65 794 794 _____P________ -1 -27.13 60.65 99 9 144
1874 SI MM 03:00:00 NR -27.49 60.94 846 846 _____P________ -1 -27.49 60.94 99 8 144
1874 SI MM 06:00:00 NR -27.80 61.20 reunion 889 889 _____O________ -1 -27.80 61.20 99 9.90 7 143
1874 SI MM 09:00:00 NR -28.05 61.42 928 928 _____P________ -1 -28.05 61.42 99 6 143
1874 SI MM 12:00:00 NR -28.26 61.59 956 956 _____P________ -1 -28.26 61.59 99 5 142
1874 SI MM 15:00:00 NR -28.41 61.73 970 970 _____P________ -1 -28.41 61.73 99 4 142
1874 SI MM 18:00:00 NR -28.54 61.84 985 985 _____P________ -1 -28.54 61.84 99 3 141
1874 SI MM 21:00:00 NR -28.63 61.93 999 999 _____P________ -1 -28.63 61.93 99 2 139
1874 SI MM 1874-04-01 00:00:00 NR -28.70 61.99 1013 1013 _____P________ -1 -28.70 61.99 99 2 138
1874 SI MM 03:00:00 NR -28.75 62.05 1023 1023 _____P________ -1 -28.75 62.05 99 1 136
1874 SI MM 06:00:00 NR -28.80 62.10 reunion 1028 _____O________ -1 -28.80 62.10 99 9.90 1 149